sensor_id;sensor_type;location;lat;lon;timestamp;P1;durP1;ratioP1;P2;durP2;ratioP2
44694;SDS011;32845;59.422;17.930;2024-03-02T00:03:23;25.63;;;10.85;;
44694;SDS011;32845;59.422;17.930;2024-03-02T00:07:55;30.20;;;11.95;;
44694;SDS011;32845;59.422;17.930;2024-03-02T00:12:27;34.72;;;11.93;;
44694;SDS011;32845;59.422;17.930;2024-03-02T00:16:57;27.50;;;10.57;;
44694;SDS011;32845;59.422;17.930;2024-03-02T00:21:29;31.02;;;12.48;;
44694;SDS011;32845;59.422;17.930;2024-03-02T00:26:01;31.13;;;12.00;;
44694;SDS011;32845;59.422;17.930;2024-03-02T00:35:20;28.75;;;12.10;;
44694;SDS011;32845;59.422;17.930;2024-03-02T00:39:53;23.23;;;11.57;;
44694;SDS011;32845;59.422;17.930;2024-03-02T00:44:25;37.90;;;12.95;;
44694;SDS011;32845;59.422;17.930;2024-03-02T00:49:02;29.85;;;12.18;;
44694;SDS011;32845;59.422;17.930;2024-03-02T00:53:41;30.23;;;12.00;;
44694;SDS011;32845;59.422;17.930;2024-03-02T00:58:12;27.77;;;11.50;;
44694;SDS011;32845;59.422;17.930;2024-03-02T01:02:43;27.08;;;12.05;;
44694;SDS011;32845;59.422;17.930;2024-03-02T01:07:15;28.65;;;11.88;;
44694;SDS011;32845;59.422;17.930;2024-03-02T01:11:46;22.65;;;11.38;;
44694;SDS011;32845;59.422;17.930;2024-03-02T01:16:16;25.15;;;11.52;;
44694;SDS011;32845;59.422;17.930;2024-03-02T01:20:47;24.15;;;11.32;;
44694;SDS011;32845;59.422;17.930;2024-03-02T01:25:18;21.35;;;10.95;;
44694;SDS011;32845;59.422;17.930;2024-03-02T01:29:49;27.05;;;10.43;;
44694;SDS011;32845;59.422;17.930;2024-03-02T01:34:19;28.15;;;11.93;;
44694;SDS011;32845;59.422;17.930;2024-03-02T01:38:50;26.00;;;11.45;;
44694;SDS011;32845;59.422;17.930;2024-03-02T01:43:26;35.10;;;11.90;;
44694;SDS011;32845;59.422;17.930;2024-03-02T01:47:56;29.80;;;10.77;;
44694;SDS011;32845;59.422;17.930;2024-03-02T01:52:27;32.58;;;11.40;;
44694;SDS011;32845;59.422;17.930;2024-03-02T01:57:03;28.55;;;10.90;;
44694;SDS011;32845;59.422;17.930;2024-03-02T02:01:34;29.85;;;13.02;;
44694;SDS011;32845;59.422;17.930;2024-03-02T02:06:09;31.00;;;12.35;;
44694;SDS011;32845;59.422;17.930;2024-03-02T02:10:40;40.97;;;12.85;;
44694;SDS011;32845;59.422;17.930;2024-03-02T02:15:27;30.73;;;11.95;;
44694;SDS011;32845;59.422;17.930;2024-03-02T02:19:58;34.42;;;12.40;;
44694;SDS011;32845;59.422;17.930;2024-03-02T02:24:28;38.85;;;11.50;;
44694;SDS011;32845;59.422;17.930;2024-03-02T02:28:59;37.72;;;12.45;;
44694;SDS011;32845;59.422;17.930;2024-03-02T02:33:30;36.17;;;12.93;;
44694;SDS011;32845;59.422;17.930;2024-03-02T02:38:00;35.38;;;12.68;;
44694;SDS011;32845;59.422;17.930;2024-03-02T02:42:32;34.70;;;11.68;;
44694;SDS011;32845;59.422;17.930;2024-03-02T02:47:02;28.83;;;12.40;;
44694;SDS011;32845;59.422;17.930;2024-03-02T02:51:33;31.60;;;12.65;;
44694;SDS011;32845;59.422;17.930;2024-03-02T02:56:03;34.55;;;12.18;;
44694;SDS011;32845;59.422;17.930;2024-03-02T03:00:34;36.75;;;12.82;;
44694;SDS011;32845;59.422;17.930;2024-03-02T03:05:06;36.80;;;13.30;;
44694;SDS011;32845;59.422;17.930;2024-03-02T03:09:38;28.42;;;11.68;;
44694;SDS011;32845;59.422;17.930;2024-03-02T03:14:11;31.58;;;13.25;;
44694;SDS011;32845;59.422;17.930;2024-03-02T03:18:42;28.83;;;12.43;;
44694;SDS011;32845;59.422;17.930;2024-03-02T03:23:13;33.05;;;12.55;;
44694;SDS011;32845;59.422;17.930;2024-03-02T03:27:47;26.75;;;12.40;;
44694;SDS011;32845;59.422;17.930;2024-03-02T03:32:17;29.45;;;12.25;;
44694;SDS011;32845;59.422;17.930;2024-03-02T03:36:48;27.58;;;12.55;;
44694;SDS011;32845;59.422;17.930;2024-03-02T03:41:18;33.28;;;13.10;;
44694;SDS011;32845;59.422;17.930;2024-03-02T03:45:49;36.40;;;13.15;;
44694;SDS011;32845;59.422;17.930;2024-03-02T03:50:20;34.70;;;13.27;;
44694;SDS011;32845;59.422;17.930;2024-03-02T03:54:51;33.80;;;13.98;;
44694;SDS011;32845;59.422;17.930;2024-03-02T03:59:21;34.88;;;13.77;;
44694;SDS011;32845;59.422;17.930;2024-03-02T04:03:52;31.52;;;13.98;;
44694;SDS011;32845;59.422;17.930;2024-03-02T04:08:22;40.30;;;13.95;;
44694;SDS011;32845;59.422;17.930;2024-03-02T04:12:53;31.65;;;14.13;;
44694;SDS011;32845;59.422;17.930;2024-03-02T04:17:24;33.03;;;13.30;;
44694;SDS011;32845;59.422;17.930;2024-03-02T04:21:54;40.58;;;14.43;;
44694;SDS011;32845;59.422;17.930;2024-03-02T04:26:25;33.25;;;13.55;;
44694;SDS011;32845;59.422;17.930;2024-03-02T04:30:56;39.20;;;14.35;;
44694;SDS011;32845;59.422;17.930;2024-03-02T04:35:27;32.05;;;12.98;;
44694;SDS011;32845;59.422;17.930;2024-03-02T04:39:57;34.42;;;12.90;;
44694;SDS011;32845;59.422;17.930;2024-03-02T04:44:28;31.95;;;13.07;;
44694;SDS011;32845;59.422;17.930;2024-03-02T04:48:58;32.70;;;13.68;;
44694;SDS011;32845;59.422;17.930;2024-03-02T04:53:29;32.95;;;12.88;;
44694;SDS011;32845;59.422;17.930;2024-03-02T04:57:59;42.33;;;14.05;;
44694;SDS011;32845;59.422;17.930;2024-03-02T05:02:30;34.60;;;13.32;;
44694;SDS011;32845;59.422;17.930;2024-03-02T05:07:11;37.08;;;13.90;;
44694;SDS011;32845;59.422;17.930;2024-03-02T05:16:29;29.75;;;12.82;;
44694;SDS011;32845;59.422;17.930;2024-03-02T05:21:03;47.90;;;14.45;;
44694;SDS011;32845;59.422;17.930;2024-03-02T05:25:33;33.65;;;13.18;;
44694;SDS011;32845;59.422;17.930;2024-03-02T05:30:05;35.17;;;13.27;;
44694;SDS011;32845;59.422;17.930;2024-03-02T05:34:36;41.42;;;14.02;;
44694;SDS011;32845;59.422;17.930;2024-03-02T05:39:07;36.35;;;14.43;;
44694;SDS011;32845;59.422;17.930;2024-03-02T05:43:39;38.33;;;13.15;;
44694;SDS011;32845;59.422;17.930;2024-03-02T05:48:09;40.42;;;13.80;;
44694;SDS011;32845;59.422;17.930;2024-03-02T05:52:40;36.10;;;14.75;;
44694;SDS011;32845;59.422;17.930;2024-03-02T05:57:16;40.35;;;14.30;;
44694;SDS011;32845;59.422;17.930;2024-03-02T06:01:47;37.83;;;13.40;;
44694;SDS011;32845;59.422;17.930;2024-03-02T06:06:20;36.67;;;13.55;;
44694;SDS011;32845;59.422;17.930;2024-03-02T06:10:51;38.40;;;14.27;;
44694;SDS011;32845;59.422;17.930;2024-03-02T06:15:22;42.70;;;14.35;;
44694;SDS011;32845;59.422;17.930;2024-03-02T06:19:53;37.33;;;13.55;;
44694;SDS011;32845;59.422;17.930;2024-03-02T06:24:29;34.80;;;13.25;;
44694;SDS011;32845;59.422;17.930;2024-03-02T06:28:59;39.50;;;15.10;;
44694;SDS011;32845;59.422;17.930;2024-03-02T06:33:32;32.75;;;14.30;;
44694;SDS011;32845;59.422;17.930;2024-03-02T06:38:02;37.92;;;14.98;;
44694;SDS011;32845;59.422;17.930;2024-03-02T06:42:33;35.80;;;14.00;;
44694;SDS011;32845;59.422;17.930;2024-03-02T06:47:04;40.85;;;15.07;;
44694;SDS011;32845;59.422;17.930;2024-03-02T06:51:35;43.00;;;14.23;;
44694;SDS011;32845;59.422;17.930;2024-03-02T06:56:06;41.60;;;14.30;;
44694;SDS011;32845;59.422;17.930;2024-03-02T07:00:38;41.45;;;14.38;;
44694;SDS011;32845;59.422;17.930;2024-03-02T07:05:08;34.95;;;13.00;;
44694;SDS011;32845;59.422;17.930;2024-03-02T07:09:39;39.85;;;14.20;;
44694;SDS011;32845;59.422;17.930;2024-03-02T07:14:10;36.83;;;12.77;;
44694;SDS011;32845;59.422;17.930;2024-03-02T07:18:41;43.20;;;14.40;;
44694;SDS011;32845;59.422;17.930;2024-03-02T07:23:15;31.73;;;12.45;;
44694;SDS011;32845;59.422;17.930;2024-03-02T07:27:45;41.42;;;13.95;;
44694;SDS011;32845;59.422;17.930;2024-03-02T07:32:16;34.40;;;13.23;;
44694;SDS011;32845;59.422;17.930;2024-03-02T07:36:47;32.80;;;12.88;;
44694;SDS011;32845;59.422;17.930;2024-03-02T07:41:17;36.30;;;12.50;;
44694;SDS011;32845;59.422;17.930;2024-03-02T07:45:48;42.08;;;12.77;;
44694;SDS011;32845;59.422;17.930;2024-03-02T07:50:19;33.53;;;12.57;;
44694;SDS011;32845;59.422;17.930;2024-03-02T07:54:49;39.13;;;12.88;;
44694;SDS011;32845;59.422;17.930;2024-03-02T07:59:20;31.90;;;13.20;;
44694;SDS011;32845;59.422;17.930;2024-03-02T08:03:52;34.38;;;13.65;;
44694;SDS011;32845;59.422;17.930;2024-03-02T08:08:22;33.88;;;13.45;;
44694;SDS011;32845;59.422;17.930;2024-03-02T08:12:53;33.97;;;12.95;;
44694;SDS011;32845;59.422;17.930;2024-03-02T08:17:23;41.53;;;13.80;;
44694;SDS011;32845;59.422;17.930;2024-03-02T08:21:54;35.55;;;12.98;;
44694;SDS011;32845;59.422;17.930;2024-03-02T08:26:30;28.65;;;12.55;;
44694;SDS011;32845;59.422;17.930;2024-03-02T08:31:01;34.95;;;11.70;;
44694;SDS011;32845;59.422;17.930;2024-03-02T08:35:37;30.60;;;13.02;;
44694;SDS011;32845;59.422;17.930;2024-03-02T08:40:08;26.60;;;11.82;;
44694;SDS011;32845;59.422;17.930;2024-03-02T08:44:39;31.90;;;12.00;;
44694;SDS011;32845;59.422;17.930;2024-03-02T08:49:09;29.63;;;12.07;;
44694;SDS011;32845;59.422;17.930;2024-03-02T08:53:40;38.58;;;14.00;;
44694;SDS011;32845;59.422;17.930;2024-03-02T08:58:12;28.40;;;11.25;;
44694;SDS011;32845;59.422;17.930;2024-03-02T09:02:43;28.20;;;11.18;;
44694;SDS011;32845;59.422;17.930;2024-03-02T09:07:14;26.60;;;10.48;;
44694;SDS011;32845;59.422;17.930;2024-03-02T09:11:45;28.30;;;10.23;;
44694;SDS011;32845;59.422;17.930;2024-03-02T09:16:17;28.35;;;11.02;;
44694;SDS011;32845;59.422;17.930;2024-03-02T09:20:47;31.02;;;10.40;;
44694;SDS011;32845;59.422;17.930;2024-03-02T09:25:23;26.50;;;10.98;;
44694;SDS011;32845;59.422;17.930;2024-03-02T09:29:53;29.40;;;11.48;;
44694;SDS011;32845;59.422;17.930;2024-03-02T09:34:24;27.85;;;11.48;;
44694;SDS011;32845;59.422;17.930;2024-03-02T09:38:55;25.90;;;10.18;;
44694;SDS011;32845;59.422;17.930;2024-03-02T09:43:25;23.02;;;10.63;;
44694;SDS011;32845;59.422;17.930;2024-03-02T09:47:56;26.48;;;10.57;;
44694;SDS011;32845;59.422;17.930;2024-03-02T09:52:27;30.90;;;11.63;;
44694;SDS011;32845;59.422;17.930;2024-03-02T09:56:58;26.63;;;11.48;;
44694;SDS011;32845;59.422;17.930;2024-03-02T10:01:28;28.83;;;10.88;;
44694;SDS011;32845;59.422;17.930;2024-03-02T10:10:57;28.88;;;10.82;;
44694;SDS011;32845;59.422;17.930;2024-03-02T10:15:28;24.50;;;10.88;;
44694;SDS011;32845;59.422;17.930;2024-03-02T10:19:59;25.75;;;10.40;;
44694;SDS011;32845;59.422;17.930;2024-03-02T10:24:49;36.60;;;12.00;;
44694;SDS011;32845;59.422;17.930;2024-03-02T10:29:23;30.38;;;10.95;;
44694;SDS011;32845;59.422;17.930;2024-03-02T10:33:59;24.85;;;10.77;;
44694;SDS011;32845;59.422;17.930;2024-03-02T10:38:30;28.70;;;10.75;;
44694;SDS011;32845;59.422;17.930;2024-03-02T10:43:01;23.77;;;11.07;;
44694;SDS011;32845;59.422;17.930;2024-03-02T10:47:33;23.92;;;10.70;;
44694;SDS011;32845;59.422;17.930;2024-03-02T10:52:07;26.02;;;11.45;;
44694;SDS011;32845;59.422;17.930;2024-03-02T10:56:39;21.52;;;10.25;;
44694;SDS011;32845;59.422;17.930;2024-03-02T11:01:11;27.13;;;10.93;;
44694;SDS011;32845;59.422;17.930;2024-03-02T11:05:45;25.10;;;11.00;;
44694;SDS011;32845;59.422;17.930;2024-03-02T11:10:17;31.88;;;10.73;;
44694;SDS011;32845;59.422;17.930;2024-03-02T11:14:48;21.48;;;10.77;;
44694;SDS011;32845;59.422;17.930;2024-03-02T11:19:21;29.92;;;11.23;;
44694;SDS011;32845;59.422;17.930;2024-03-02T11:23:53;22.58;;;10.35;;
44694;SDS011;32845;59.422;17.930;2024-03-02T11:28:34;26.55;;;11.23;;
44694;SDS011;32845;59.422;17.930;2024-03-02T11:33:06;28.35;;;10.70;;
44694;SDS011;32845;59.422;17.930;2024-03-02T11:37:40;21.17;;;10.20;;
44694;SDS011;32845;59.422;17.930;2024-03-02T11:42:11;32.72;;;10.80;;
44694;SDS011;32845;59.422;17.930;2024-03-02T11:46:53;26.83;;;10.27;;
44694;SDS011;32845;59.422;17.930;2024-03-02T11:51:29;22.70;;;9.57;;
44694;SDS011;32845;59.422;17.930;2024-03-02T11:55:59;25.50;;;10.38;;
44694;SDS011;32845;59.422;17.930;2024-03-02T12:00:32;23.30;;;10.02;;
44694;SDS011;32845;59.422;17.930;2024-03-02T12:05:02;22.10;;;10.30;;
44694;SDS011;32845;59.422;17.930;2024-03-02T12:09:34;24.95;;;10.00;;
44694;SDS011;32845;59.422;17.930;2024-03-02T12:14:10;17.42;;;9.13;;
44694;SDS011;32845;59.422;17.930;2024-03-02T12:18:42;21.20;;;9.38;;
44694;SDS011;32845;59.422;17.930;2024-03-02T12:23:13;18.95;;;9.40;;
44694;SDS011;32845;59.422;17.930;2024-03-02T12:27:44;22.67;;;9.13;;
44694;SDS011;32845;59.422;17.930;2024-03-02T12:32:16;26.63;;;8.82;;
44694;SDS011;32845;59.422;17.930;2024-03-02T12:36:47;21.98;;;9.32;;
44694;SDS011;32845;59.422;17.930;2024-03-02T12:41:19;20.95;;;9.80;;
44694;SDS011;32845;59.422;17.930;2024-03-02T12:45:50;28.17;;;8.90;;
44694;SDS011;32845;59.422;17.930;2024-03-02T12:50:21;20.38;;;8.38;;
44694;SDS011;32845;59.422;17.930;2024-03-02T12:54:52;19.67;;;7.55;;
44694;SDS011;32845;59.422;17.930;2024-03-02T12:59:27;23.70;;;9.00;;
44694;SDS011;32845;59.422;17.930;2024-03-02T13:03:58;20.15;;;8.60;;
44694;SDS011;32845;59.422;17.930;2024-03-02T13:08:29;22.30;;;8.38;;
44694;SDS011;32845;59.422;17.930;2024-03-02T13:13:00;17.80;;;8.20;;
44694;SDS011;32845;59.422;17.930;2024-03-02T13:17:31;24.92;;;7.85;;
44694;SDS011;32845;59.422;17.930;2024-03-02T13:22:04;16.50;;;7.97;;
44694;SDS011;32845;59.422;17.930;2024-03-02T13:26:36;22.48;;;8.38;;
44694;SDS011;32845;59.422;17.930;2024-03-02T13:31:06;21.67;;;7.57;;
44694;SDS011;32845;59.422;17.930;2024-03-02T13:35:37;17.27;;;8.13;;
44694;SDS011;32845;59.422;17.930;2024-03-02T13:40:08;17.52;;;7.47;;
44694;SDS011;32845;59.422;17.930;2024-03-02T13:44:43;19.23;;;7.95;;
44694;SDS011;32845;59.422;17.930;2024-03-02T13:49:17;19.02;;;7.63;;
44694;SDS011;32845;59.422;17.930;2024-03-02T13:53:47;18.65;;;7.28;;
44694;SDS011;32845;59.422;17.930;2024-03-02T13:58:18;15.93;;;6.95;;
44694;SDS011;32845;59.422;17.930;2024-03-02T14:02:50;17.63;;;7.88;;
44694;SDS011;32845;59.422;17.930;2024-03-02T14:07:21;27.25;;;8.27;;
44694;SDS011;32845;59.422;17.930;2024-03-02T14:11:51;21.52;;;7.35;;
44694;SDS011;32845;59.422;17.930;2024-03-02T14:16:22;20.90;;;8.18;;
44694;SDS011;32845;59.422;17.930;2024-03-02T14:20:53;18.02;;;7.70;;
44694;SDS011;32845;59.422;17.930;2024-03-02T14:25:23;14.57;;;7.25;;
44694;SDS011;32845;59.422;17.930;2024-03-02T14:29:54;17.83;;;7.40;;
44694;SDS011;32845;59.422;17.930;2024-03-02T14:34:25;16.73;;;7.82;;
44694;SDS011;32845;59.422;17.930;2024-03-02T14:38:55;22.90;;;7.45;;
44694;SDS011;32845;59.422;17.930;2024-03-02T14:43:26;15.60;;;7.03;;
44694;SDS011;32845;59.422;17.930;2024-03-02T14:47:57;18.05;;;7.75;;
44694;SDS011;32845;59.422;17.930;2024-03-02T14:52:29;17.27;;;7.10;;
44694;SDS011;32845;59.422;17.930;2024-03-02T14:57:00;20.70;;;7.45;;
44694;SDS011;32845;59.422;17.930;2024-03-02T15:01:32;15.85;;;7.45;;
44694;SDS011;32845;59.422;17.930;2024-03-02T15:06:03;16.05;;;6.70;;
44694;SDS011;32845;59.422;17.930;2024-03-02T15:10:34;16.55;;;7.13;;
44694;SDS011;32845;59.422;17.930;2024-03-02T15:15:05;16.60;;;7.80;;
44694;SDS011;32845;59.422;17.930;2024-03-02T15:19:36;22.38;;;8.23;;
44694;SDS011;32845;59.422;17.930;2024-03-02T15:24:07;18.60;;;8.30;;
44694;SDS011;32845;59.422;17.930;2024-03-02T15:28:38;17.27;;;8.18;;
44694;SDS011;32845;59.422;17.930;2024-03-02T15:33:09;14.93;;;7.70;;
44694;SDS011;32845;59.422;17.930;2024-03-02T15:37:39;17.70;;;8.52;;
44694;SDS011;32845;59.422;17.930;2024-03-02T15:42:10;16.95;;;7.55;;
44694;SDS011;32845;59.422;17.930;2024-03-02T15:46:41;18.92;;;8.80;;
44694;SDS011;32845;59.422;17.930;2024-03-02T15:51:12;25.38;;;8.40;;
44694;SDS011;32845;59.422;17.930;2024-03-02T15:55:43;25.35;;;8.82;;
44694;SDS011;32845;59.422;17.930;2024-03-02T16:00:14;18.98;;;8.57;;
44694;SDS011;32845;59.422;17.930;2024-03-02T16:04:47;22.70;;;9.02;;
44694;SDS011;32845;59.422;17.930;2024-03-02T16:09:18;17.20;;;8.93;;
44694;SDS011;32845;59.422;17.930;2024-03-02T16:13:49;23.52;;;8.73;;
44694;SDS011;32845;59.422;17.930;2024-03-02T16:18:19;23.60;;;8.88;;
44694;SDS011;32845;59.422;17.930;2024-03-02T16:22:50;21.48;;;8.40;;
44694;SDS011;32845;59.422;17.930;2024-03-02T16:27:21;19.13;;;8.30;;
44694;SDS011;32845;59.422;17.930;2024-03-02T16:31:51;17.00;;;8.48;;
44694;SDS011;32845;59.422;17.930;2024-03-02T16:36:22;23.38;;;10.00;;
44694;SDS011;32845;59.422;17.930;2024-03-02T16:40:52;23.75;;;8.80;;
44694;SDS011;32845;59.422;17.930;2024-03-02T16:45:23;22.30;;;8.63;;
44694;SDS011;32845;59.422;17.930;2024-03-02T16:49:54;31.40;;;9.30;;
44694;SDS011;32845;59.422;17.930;2024-03-02T16:54:24;27.23;;;9.38;;
44694;SDS011;32845;59.422;17.930;2024-03-02T16:58:55;24.25;;;8.93;;
44694;SDS011;32845;59.422;17.930;2024-03-02T17:03:26;24.77;;;10.20;;
44694;SDS011;32845;59.422;17.930;2024-03-02T17:07:56;26.40;;;9.10;;
44694;SDS011;32845;59.422;17.930;2024-03-02T17:12:28;18.15;;;8.63;;
44694;SDS011;32845;59.422;17.930;2024-03-02T17:16:58;28.00;;;9.23;;
44694;SDS011;32845;59.422;17.930;2024-03-02T17:21:29;21.85;;;9.57;;
44694;SDS011;32845;59.422;17.930;2024-03-02T17:26:00;19.20;;;9.52;;
44694;SDS011;32845;59.422;17.930;2024-03-02T17:30:31;28.52;;;9.75;;
44694;SDS011;32845;59.422;17.930;2024-03-02T17:35:02;28.15;;;10.65;;
44694;SDS011;32845;59.422;17.930;2024-03-02T17:39:33;29.58;;;8.88;;
44694;SDS011;32845;59.422;17.930;2024-03-02T17:44:03;28.35;;;9.57;;
44694;SDS011;32845;59.422;17.930;2024-03-02T17:48:34;27.27;;;9.02;;
44694;SDS011;32845;59.422;17.930;2024-03-02T17:53:05;29.83;;;9.38;;
44694;SDS011;32845;59.422;17.930;2024-03-02T17:57:36;22.33;;;9.55;;
44694;SDS011;32845;59.422;17.930;2024-03-02T18:02:07;22.27;;;9.15;;
44694;SDS011;32845;59.422;17.930;2024-03-02T18:06:38;20.92;;;8.90;;
44694;SDS011;32845;59.422;17.930;2024-03-02T18:11:08;19.25;;;9.32;;
44694;SDS011;32845;59.422;17.930;2024-03-02T18:15:39;27.48;;;8.75;;
44694;SDS011;32845;59.422;17.930;2024-03-02T18:20:10;22.23;;;9.07;;
44694;SDS011;32845;59.422;17.930;2024-03-02T18:24:41;20.63;;;9.10;;
44694;SDS011;32845;59.422;17.930;2024-03-02T18:29:11;23.77;;;9.75;;
44694;SDS011;32845;59.422;17.930;2024-03-02T18:33:42;21.20;;;9.40;;
44694;SDS011;32845;59.422;17.930;2024-03-02T18:38:13;24.65;;;9.00;;
44694;SDS011;32845;59.422;17.930;2024-03-02T18:42:44;20.33;;;8.75;;
44694;SDS011;32845;59.422;17.930;2024-03-02T18:47:14;30.83;;;10.40;;
44694;SDS011;32845;59.422;17.930;2024-03-02T18:51:45;25.30;;;10.15;;
44694;SDS011;32845;59.422;17.930;2024-03-02T18:56:16;27.50;;;9.77;;
44694;SDS011;32845;59.422;17.930;2024-03-02T19:00:46;22.17;;;10.05;;
44694;SDS011;32845;59.422;17.930;2024-03-02T19:05:17;36.92;;;10.43;;
44694;SDS011;32845;59.422;17.930;2024-03-02T19:09:48;20.33;;;9.20;;
44694;SDS011;32845;59.422;17.930;2024-03-02T19:14:18;25.13;;;11.13;;
44694;SDS011;32845;59.422;17.930;2024-03-02T19:18:49;26.75;;;10.30;;
44694;SDS011;32845;59.422;17.930;2024-03-02T19:23:20;28.40;;;10.43;;
44694;SDS011;32845;59.422;17.930;2024-03-02T19:27:50;24.33;;;10.40;;
44694;SDS011;32845;59.422;17.930;2024-03-02T19:32:21;20.10;;;10.23;;
44694;SDS011;32845;59.422;17.930;2024-03-02T19:36:52;25.92;;;9.85;;
44694;SDS011;32845;59.422;17.930;2024-03-02T19:41:24;29.70;;;10.85;;
44694;SDS011;32845;59.422;17.930;2024-03-02T19:45:55;25.75;;;10.13;;
44694;SDS011;32845;59.422;17.930;2024-03-02T19:50:25;28.17;;;12.13;;
44694;SDS011;32845;59.422;17.930;2024-03-02T19:54:56;23.08;;;10.27;;
44694;SDS011;32845;59.422;17.930;2024-03-02T19:59:27;25.48;;;10.07;;
44694;SDS011;32845;59.422;17.930;2024-03-02T20:03:58;28.65;;;10.82;;
44694;SDS011;32845;59.422;17.930;2024-03-02T20:08:28;24.65;;;10.27;;
44694;SDS011;32845;59.422;17.930;2024-03-02T20:12:59;23.85;;;10.32;;
44694;SDS011;32845;59.422;17.930;2024-03-02T20:17:33;26.27;;;10.75;;
44694;SDS011;32845;59.422;17.930;2024-03-02T20:22:03;27.55;;;9.85;;
44694;SDS011;32845;59.422;17.930;2024-03-02T20:26:34;30.73;;;11.07;;
44694;SDS011;32845;59.422;17.930;2024-03-02T20:31:05;24.30;;;9.50;;
44694;SDS011;32845;59.422;17.930;2024-03-02T20:35:36;21.98;;;10.50;;
44694;SDS011;32845;59.422;17.930;2024-03-02T20:40:07;24.55;;;9.93;;
44694;SDS011;32845;59.422;17.930;2024-03-02T20:44:39;24.83;;;9.07;;
44694;SDS011;32845;59.422;17.930;2024-03-02T20:49:10;21.92;;;8.65;;
44694;SDS011;32845;59.422;17.930;2024-03-02T20:53:41;20.50;;;9.57;;
44694;SDS011;32845;59.422;17.930;2024-03-02T20:58:11;21.45;;;9.43;;
44694;SDS011;32845;59.422;17.930;2024-03-02T21:02:43;21.65;;;9.43;;
44694;SDS011;32845;59.422;17.930;2024-03-02T21:07:15;24.92;;;9.32;;
44694;SDS011;32845;59.422;17.930;2024-03-02T21:11:48;22.55;;;9.95;;
44694;SDS011;32845;59.422;17.930;2024-03-02T21:16:18;27.08;;;9.93;;
44694;SDS011;32845;59.422;17.930;2024-03-02T21:20:49;21.60;;;9.98;;
44694;SDS011;32845;59.422;17.930;2024-03-02T21:25:20;32.28;;;9.77;;
44694;SDS011;32845;59.422;17.930;2024-03-02T21:29:50;26.33;;;9.73;;
44694;SDS011;32845;59.422;17.930;2024-03-02T21:34:21;20.85;;;9.57;;
44694;SDS011;32845;59.422;17.930;2024-03-02T21:38:52;19.65;;;8.57;;
44694;SDS011;32845;59.422;17.930;2024-03-02T21:43:22;26.52;;;9.13;;
44694;SDS011;32845;59.422;17.930;2024-03-02T21:47:53;18.35;;;8.93;;
44694;SDS011;32845;59.422;17.930;2024-03-02T21:52:24;22.23;;;9.35;;
44694;SDS011;32845;59.422;17.930;2024-03-02T21:56:55;20.42;;;9.48;;
44694;SDS011;32845;59.422;17.930;2024-03-02T22:01:26;31.02;;;9.70;;
44694;SDS011;32845;59.422;17.930;2024-03-02T22:05:57;23.85;;;9.30;;
44694;SDS011;32845;59.422;17.930;2024-03-02T22:10:27;18.88;;;8.80;;
44694;SDS011;32845;59.422;17.930;2024-03-02T22:14:59;20.02;;;8.43;;
44694;SDS011;32845;59.422;17.930;2024-03-02T22:19:30;24.63;;;8.70;;
44694;SDS011;32845;59.422;17.930;2024-03-02T22:24:00;24.73;;;9.35;;
44694;SDS011;32845;59.422;17.930;2024-03-02T22:28:31;22.70;;;9.00;;
44694;SDS011;32845;59.422;17.930;2024-03-02T22:33:02;22.95;;;8.60;;
44694;SDS011;32845;59.422;17.930;2024-03-02T22:37:32;21.75;;;8.77;;
44694;SDS011;32845;59.422;17.930;2024-03-02T22:42:03;18.13;;;7.93;;
44694;SDS011;32845;59.422;17.930;2024-03-02T22:46:34;16.30;;;7.25;;
44694;SDS011;32845;59.422;17.930;2024-03-02T22:51:04;21.90;;;7.65;;
44694;SDS011;32845;59.422;17.930;2024-03-02T22:55:35;17.60;;;7.18;;
44694;SDS011;32845;59.422;17.930;2024-03-02T23:00:06;17.48;;;7.20;;
44694;SDS011;32845;59.422;17.930;2024-03-02T23:04:57;22.40;;;7.43;;
44694;SDS011;32845;59.422;17.930;2024-03-02T23:09:28;13.77;;;7.07;;
44694;SDS011;32845;59.422;17.930;2024-03-02T23:13:59;17.50;;;7.50;;
44694;SDS011;32845;59.422;17.930;2024-03-02T23:18:29;22.20;;;7.63;;
44694;SDS011;32845;59.422;17.930;2024-03-02T23:23:00;17.88;;;6.70;;
44694;SDS011;32845;59.422;17.930;2024-03-02T23:27:34;19.67;;;6.85;;
44694;SDS011;32845;59.422;17.930;2024-03-02T23:32:05;17.58;;;7.35;;
44694;SDS011;32845;59.422;17.930;2024-03-02T23:36:38;18.33;;;7.45;;
44694;SDS011;32845;59.422;17.930;2024-03-02T23:41:09;21.23;;;7.15;;
44694;SDS011;32845;59.422;17.930;2024-03-02T23:45:40;19.65;;;7.53;;
44694;SDS011;32845;59.422;17.930;2024-03-02T23:50:10;19.02;;;6.93;;
44694;SDS011;32845;59.422;17.930;2024-03-02T23:54:41;16.95;;;6.80;;
44694;SDS011;32845;59.422;17.930;2024-03-02T23:59:12;19.67;;;6.70;;
